Estatísticas do Tribal Wars: br87: Ennoblements

K00 K01 K02 K03 K04 K05 K06 K07 K08 K09 K10 K11 K12 K13 K14 K15 K16 K17 K18 K19 K20 K21 K22 K23 K24 K25 K26 K27 K28 K29 K30 K31 K32 K33 K34 K35 K36 K37 K38 K39 K40 K41 K42 K43 K44 K45 K46 K47 K48 K49 K50 K51 K52 K53 K54 K55 K56 K57 K58 K59 K60 K61 K62 K63 K64 K65 K66 K67 K68 K69 K70 K71 K72 K73 K74 K75 K76 K77 K78 K79 K80 K81 K82 K83 K84 K85 K86 K87 K88 K89 K90 K91 K92 K93 K94 K95 K96 K97 K98 K99
Continente Mínimo de pontos Pontos máximos Tribo  
Todo

>1< [2] [3] [4] [5] [6] [7] [8] [9] [10] [11] [12] [13] [14] [15] [16] [17] [18] [19] [20]

AldeiaPontosProprietário antigoNovo proprietárioData/Tempo
0571 Déby (526|445) K459,668ogleenmorreu [SHOW]- Homer [[HERO]]2018-11-14 - 23:43:09
0410 - [H E R O] (527|485) K459,466fit Guilherme fit [[H]]fit Guilherme fit [[H]]2018-11-14 - 23:30:54
0410 - [H E R O] (527|485) K459,466Urso Assassino [[HERO]]fit Guilherme fit [[H]]2018-11-14 - 23:30:54
088 | Bolsonaro Opressor (535|462) K459,152Legendary Gusty [[H]]Legendary Gusty [[H]]2018-11-14 - 23:28:40
088 | Bolsonaro Opressor (535|462) K459,152Legendary Gusty [[H]]Legendary Gusty [[H]]2018-11-14 - 23:28:39
088 | Bolsonaro Opressor (535|462) K459,152- TopaComBolsonaro? [SHOW]Legendary Gusty [[H]]2018-11-14 - 23:28:39
088 | Bolsonaro Opressor (535|462) K459,152Legendary Gusty [[H]]Legendary Gusty [[H]]2018-11-14 - 23:28:39
0199 - [H E R O] (514|452) K458,736Urso Assassino [[HERO]]- TopaComBolsonaro? [SHOW]2018-11-14 - 23:25:50
K65 098 (526|684) K6510,160Michael Sc0field [$$$]hitto [[H]]2018-11-14 - 23:09:01
0476 Déby (536|470) K459,731Urso Assassino [[HERO]]ogleenmorreu [SHOW]2018-11-14 - 23:03:15
0329 - [H E R O] (529|476) K459,330Urso Assassino [[HERO]]ogleenmorreu [SHOW]2018-11-14 - 23:00:07
0230 - [H E R O] (539|460) K459,817Urso Assassino [[HERO]]Fear The Beard [SHOW]2018-11-14 - 22:59:53
0232 - [H E R O] (536|461) K459,297Urso Assassino [[HERO]]ogleenmorreu [SHOW]2018-11-14 - 22:59:22
0232 - [H E R O] (536|461) K459,297ogleenmorreu [SHOW]ogleenmorreu [SHOW]2018-11-14 - 22:59:22
0232 - [H E R O] (536|461) K459,297ogleenmorreu [SHOW]ogleenmorreu [SHOW]2018-11-14 - 22:59:22
0770 - [H E R O] (534|464) K459,305Urso Assassino [[HERO]]ogleenmorreu [SHOW]2018-11-14 - 22:59:20
0770 - [H E R O] (534|464) K459,305ogleenmorreu [SHOW]ogleenmorreu [SHOW]2018-11-14 - 22:59:20
0218 - [H E R O] (545|452) K459,365Urso Assassino [[HERO]]Fear The Beard [SHOW]2018-11-14 - 22:59:04
0475 Déby (527|477) K459,314ogleenmorreu [SHOW]ogleenmorreu [SHOW]2018-11-14 - 22:59:02
0475 Déby (527|477) K459,314ogleenmorreu [SHOW]ogleenmorreu [SHOW]2018-11-14 - 22:59:02

>1< [2] [3] [4] [5] [6] [7] [8] [9] [10] [11] [12] [13] [14] [15] [16] [17] [18] [19] [20]

2018-11-15 00:05:35 ART

Site by Clash Rank - Report error - Privacy policy - 2.1 272